Date,TemperatureHighF,TemperatureAvgF,TemperatureLowF,DewpointHighF,DewpointAvgF,DewpointLowF,HumidityHigh,HumidityAvg,HumidityLow,PressureMaxIn,PressureMinIn,WindSpeedMaxMPH,WindSpeedAvgMPH,GustSpeedMaxMPH,PrecipitationSumIn
2013-11-1,42.8,35.3,28.4,38.6,33.6,27.9,98,94,79,30.00,29.80,2,0,0,0.01
2013-11-2,35.6,31.8,28.4,35.1,30.8,26.1,98,96,90,29.79,29.42,3,1,0,0.05
2013-11-3,33.8,28.9,21.2,30.1,26.2,18.7,98,90,82,29.90,29.61,3,1,0,0.00
2013-11-4,35.6,24.6,14.0,30.4,21.8,10.6,98,89,75,29.97,29.84,1,0,0,0.06
2013-11-5,33.8,29.8,26.6,31.5,28.6,26.1,98,95,85,29.98,29.82,1,0,0,0.00
2013-11-6,33.8,31.0,28.4,33.3,29.8,27.9,98,96,83,30.14,29.96,0,0,0,0.00
2013-11-7,35.6,32.8,30.2,33.3,31.9,29.7,98,97,88,29.95,29.46,2,0,0,0.05
2013-11-8,42.8,33.5,28.4,36.7,31.7,27.9,98,93,77,29.91,29.79,3,1,0,0.46
2013-11-9,37.4,31.5,26.6,32.7,30.2,26.1,98,95,82,30.01,29.91,3,0,0,0.02
2013-11-10,33.8,31.2,26.6,33.3,29.7,26.1,98,94,85,30.22,30.00,2,0,0,0.01
2013-11-11,37.4,29.1,19.4,29.7,26.0,17.2,98,89,73,30.23,29.96,4,2,0,0.02
2013-11-12,46.4,39.1,33.8,38.2,34.1,30.1,90,83,70,30.00,29.87,5,3,0,0.86
2013-11-13,44.6,38.3,32.0,37.8,34.9,30.9,98,88,73,30.11,29.97,4,1,0,0.04
2013-11-14,41.0,33.2,28.4,35.1,31.3,27.9,98,93,72,30.05,29.63,3,0,0,0.15
2013-11-15,32.0,31.1,30.2,31.5,30.6,29.7,98,98,98,29.62,29.38,2,0,0,0.09
2013-11-17,28.4,28.2,26.6,27.9,27.7,26.1,98,98,98,29.48,29.43,0,0,0,0.00
2013-11-18,30.2,24.1,14.0,27.4,21.9,10.3,98,91,83,29.57,29.45,0,0,0,0.00
2013-11-19,14.0,6.1,-7.6,10.3,1.3,-13.1,85,80,73,29.95,29.43,0,0,0,0.00
2013-11-20,19.4,3.4,-13.0,18.9,-1.6,-18.6,84,77,69,30.24,29.96,0,0,0,0.00
2013-11-21,23.0,17.7,10.4,18.3,13.2,6.3,86,82,75,30.46,30.23,0,0,0,0.00
2013-11-22,30.2,20.8,14.0,23.6,17.0,11.1,98,85,73,30.53,30.35,0,0,0,0.00
2013-11-23,30.2,25.0,17.6,25.7,21.2,14.4,92,85,78,30.37,30.07,0,0,0,0.00
2013-11-24,32.0,25.3,14.0,27.9,22.8,11.1,98,90,81,30.16,30.09,0,0,0,0.00
2013-11-25,35.6,29.8,26.6,31.0,27.7,24.3,98,92,80,30.19,30.09,0,0,0,0.00
2013-11-26,35.6,28.3,21.2,30.7,26.7,20.7,98,94,79,30.09,29.94,0,0,0,0.00
2013-11-27,35.6,25.6,21.2,31.5,24.1,19.0,98,94,78,30.00,29.87,0,0,0,0.00
2013-11-28,37.4,31.3,23.0,33.3,29.2,22.5,98,92,79,29.93,29.81,0,0,0,0.02
2013-11-29,37.4,32.5,30.2,35.1,31.7,29.7,98,97,86,30.01,29.91,0,0,0,0.09
2013-11-30,37.4,33.6,32.0,36.9,33.1,31.5,98,98,98,29.99,29.79,3,0,0,0.28